sensor_id;sensor_type;location;lat;lon;timestamp;pressure;altitude;pressure_sealevel;temperature;humidity
72685;BME280;61365;52.162;4.500;2023-03-03T00:01:42;102567.75;;;3.07;87.67
72685;BME280;61365;52.162;4.500;2023-03-03T00:04:08;102569.25;;;3.03;87.80
72685;BME280;61365;52.162;4.500;2023-03-03T00:06:35;102559.72;;;3.02;87.99
72685;BME280;61365;52.162;4.500;2023-03-03T00:09:01;102562.75;;;2.95;88.09
72685;BME280;61365;52.162;4.500;2023-03-03T00:11:28;102571.53;;;2.97;88.40
72685;BME280;61365;52.162;4.500;2023-03-03T00:13:55;102574.94;;;2.96;87.97
72685;BME280;61365;52.162;4.500;2023-03-03T00:16:30;102569.72;;;3.11;88.00
72685;BME280;61365;52.162;4.500;2023-03-03T00:19:00;102572.41;;;3.12;87.72
72685;BME280;61365;52.162;4.500;2023-03-03T00:21:32;102574.19;;;2.98;88.07
72685;BME280;61365;52.162;4.500;2023-03-03T00:24:36;102572.78;;;3.04;88.07
72685;BME280;61365;52.162;4.500;2023-03-03T00:30:00;102578.69;;;3.01;88.84
72685;BME280;61365;52.162;4.500;2023-03-03T00:35:27;102578.22;;;3.08;88.57
72685;BME280;61365;52.162;4.500;2023-03-03T00:37:58;102584.38;;;3.10;88.85
72685;BME280;61365;52.162;4.500;2023-03-03T00:40:34;102586.72;;;3.06;88.73
72685;BME280;61365;52.162;4.500;2023-03-03T00:43:25;102588.06;;;2.99;88.87
72685;BME280;61365;52.162;4.500;2023-03-03T00:45:59;102574.38;;;3.02;88.20
72685;BME280;61365;52.162;4.500;2023-03-03T00:48:34;102577.53;;;2.96;88.27
72685;BME280;61365;52.162;4.500;2023-03-03T00:51:28;102576.09;;;3.01;88.06
72685;BME280;61365;52.162;4.500;2023-03-03T00:53:57;102582.97;;;3.00;88.54
72685;BME280;61365;52.162;4.500;2023-03-03T00:56:24;102574.75;;;2.93;88.22
72685;BME280;61365;52.162;4.500;2023-03-03T00:58:52;102577.78;;;2.85;89.05
72685;BME280;61365;52.162;4.500;2023-03-03T01:01:19;102580.38;;;2.85;88.17
72685;BME280;61365;52.162;4.500;2023-03-03T01:03:45;102583.94;;;3.03;88.48
72685;BME280;61365;52.162;4.500;2023-03-03T01:06:12;102585.75;;;3.04;87.91
72685;BME280;61365;52.162;4.500;2023-03-03T01:08:40;102585.47;;;2.99;87.64
72685;BME280;61365;52.162;4.500;2023-03-03T01:11:19;102583.94;;;3.03;87.85
72685;BME280;61365;52.162;4.500;2023-03-03T01:13:49;102579.38;;;2.98;87.58
72685;BME280;61365;52.162;4.500;2023-03-03T01:16:18;102580.63;;;3.05;87.87
72685;BME280;61365;52.162;4.500;2023-03-03T01:18:45;102584.81;;;3.03;87.23
72685;BME280;61365;52.162;4.500;2023-03-03T01:21:12;102584.94;;;2.90;87.77
72685;BME280;61365;52.162;4.500;2023-03-03T01:23:38;102588.88;;;2.98;86.98
72685;BME280;61365;52.162;4.500;2023-03-03T01:26:05;102590.13;;;2.90;87.25
72685;BME280;61365;52.162;4.500;2023-03-03T01:28:32;102587.53;;;2.90;87.81
72685;BME280;61365;52.162;4.500;2023-03-03T01:31:04;102580.28;;;2.84;87.10
72685;BME280;61365;52.162;4.500;2023-03-03T01:33:32;102588.94;;;2.84;87.88
72685;BME280;61365;52.162;4.500;2023-03-03T01:36:00;102588.25;;;2.87;87.43
72685;BME280;61365;52.162;4.500;2023-03-03T01:38:28;102584.06;;;2.89;87.21
72685;BME280;61365;52.162;4.500;2023-03-03T01:40:56;102588.94;;;2.69;87.85
72685;BME280;61365;52.162;4.500;2023-03-03T01:43:28;102589.94;;;2.87;87.20
72685;BME280;61365;52.162;4.500;2023-03-03T01:51:03;102589.84;;;2.85;87.55
72685;BME280;61365;52.162;4.500;2023-03-03T01:53:49;102584.38;;;2.80;87.27
72685;BME280;61365;52.162;4.500;2023-03-03T01:56:19;102586.16;;;2.81;86.96
72685;BME280;61365;52.162;4.500;2023-03-03T01:59:00;102584.22;;;2.77;87.10
72685;BME280;61365;52.162;4.500;2023-03-03T02:01:32;102584.72;;;2.72;87.42
72685;BME280;61365;52.162;4.500;2023-03-03T02:03:59;102589.66;;;2.67;87.35
72685;BME280;61365;52.162;4.500;2023-03-03T02:06:37;102578.53;;;2.54;87.38
72685;BME280;61365;52.162;4.500;2023-03-03T02:09:10;102581.06;;;2.68;87.51
72685;BME280;61365;52.162;4.500;2023-03-03T02:11:45;102583.03;;;2.57;87.77
72685;BME280;61365;52.162;4.500;2023-03-03T02:14:16;102586.22;;;2.53;87.25
72685;BME280;61365;52.162;4.500;2023-03-03T02:16:43;102584.72;;;2.57;87.80
72685;BME280;61365;52.162;4.500;2023-03-03T02:19:23;102577.94;;;2.74;87.42
72685;BME280;61365;52.162;4.500;2023-03-03T02:21:54;102576.44;;;2.62;86.08
72685;BME280;61365;52.162;4.500;2023-03-03T02:24:34;102580.16;;;2.67;86.86
72685;BME280;61365;52.162;4.500;2023-03-03T02:27:02;102577.94;;;2.74;86.86
72685;BME280;61365;52.162;4.500;2023-03-03T02:29:29;102584.66;;;2.70;86.24
72685;BME280;61365;52.162;4.500;2023-03-03T02:31:55;102580.47;;;2.72;86.65
72685;BME280;61365;52.162;4.500;2023-03-03T02:34:25;102572.38;;;2.67;86.74
72685;BME280;61365;52.162;4.500;2023-03-03T02:36:51;102580.25;;;2.54;86.80
72685;BME280;61365;52.162;4.500;2023-03-03T02:39:21;102574.38;;;2.72;86.58
72685;BME280;61365;52.162;4.500;2023-03-03T02:44:23;102570.25;;;2.60;86.35
72685;BME280;61365;52.162;4.500;2023-03-03T02:46:53;102570.06;;;2.57;87.03
72685;BME280;61365;52.162;4.500;2023-03-03T02:49:23;102574.25;;;2.55;86.62
72685;BME280;61365;52.162;4.500;2023-03-03T02:51:52;102565.72;;;2.71;85.84
72685;BME280;61365;52.162;4.500;2023-03-03T02:54:21;102565.22;;;2.48;86.64
72685;BME280;61365;52.162;4.500;2023-03-03T02:56:48;102561.13;;;2.67;86.61
72685;BME280;61365;52.162;4.500;2023-03-03T02:59:15;102565.59;;;2.69;85.77
72685;BME280;61365;52.162;4.500;2023-03-03T03:01:43;102575.09;;;2.69;86.34
72685;BME280;61365;52.162;4.500;2023-03-03T03:04:14;102576.59;;;2.65;85.58
72685;BME280;61365;52.162;4.500;2023-03-03T03:06:43;102575.44;;;2.60;86.17
72685;BME280;61365;52.162;4.500;2023-03-03T03:09:11;102577.66;;;2.54;86.25
72685;BME280;61365;52.162;4.500;2023-03-03T03:11:39;102570.88;;;2.56;86.41
72685;BME280;61365;52.162;4.500;2023-03-03T03:14:07;102572.66;;;2.57;86.41
72685;BME280;61365;52.162;4.500;2023-03-03T03:16:35;102581.94;;;2.38;86.65
72685;BME280;61365;52.162;4.500;2023-03-03T03:19:03;102573.66;;;2.31;87.58
72685;BME280;61365;52.162;4.500;2023-03-03T03:21:30;102573.34;;;2.54;86.73
72685;BME280;61365;52.162;4.500;2023-03-03T03:23:57;102587.09;;;2.53;87.10
72685;BME280;61365;52.162;4.500;2023-03-03T03:26:24;102579.69;;;2.45;87.57
72685;BME280;61365;52.162;4.500;2023-03-03T03:28:51;102584.63;;;2.55;87.23
72685;BME280;61365;52.162;4.500;2023-03-03T03:31:18;102589.69;;;2.53;86.79
72685;BME280;61365;52.162;4.500;2023-03-03T03:33:45;102584.00;;;2.59;87.12
72685;BME280;61365;52.162;4.500;2023-03-03T03:36:12;102585.44;;;2.54;87.23
72685;BME280;61365;52.162;4.500;2023-03-03T03:38:39;102583.63;;;2.53;87.67
72685;BME280;61365;52.162;4.500;2023-03-03T03:41:10;102590.00;;;2.30;87.54
72685;BME280;61365;52.162;4.500;2023-03-03T03:43:37;102592.28;;;2.38;88.02
72685;BME280;61365;52.162;4.500;2023-03-03T03:46:04;102585.78;;;2.45;87.77
72685;BME280;61365;52.162;4.500;2023-03-03T03:48:31;102585.66;;;2.44;88.18
72685;BME280;61365;52.162;4.500;2023-03-03T03:50:57;102583.00;;;2.42;88.07
72685;BME280;61365;52.162;4.500;2023-03-03T03:53:23;102589.06;;;2.43;88.45
72685;BME280;61365;52.162;4.500;2023-03-03T03:55:53;102594.88;;;2.38;88.00
72685;BME280;61365;52.162;4.500;2023-03-03T03:58:23;102604.81;;;2.17;88.72
72685;BME280;61365;52.162;4.500;2023-03-03T04:00:49;102599.50;;;2.29;88.83
72685;BME280;61365;52.162;4.500;2023-03-03T04:03:15;102602.66;;;2.38;87.76
72685;BME280;61365;52.162;4.500;2023-03-03T04:05:42;102592.09;;;2.35;87.97
72685;BME280;61365;52.162;4.500;2023-03-03T04:08:09;102603.16;;;2.33;88.51
72685;BME280;61365;52.162;4.500;2023-03-03T04:10:36;102606.00;;;2.22;88.41
72685;BME280;61365;52.162;4.500;2023-03-03T04:13:03;102603.69;;;2.27;88.52
72685;BME280;61365;52.162;4.500;2023-03-03T04:15:29;102612.78;;;2.20;88.76
72685;BME280;61365;52.162;4.500;2023-03-03T04:17:56;102617.94;;;2.20;88.29
72685;BME280;61365;52.162;4.500;2023-03-03T04:20:22;102614.84;;;1.84;88.91
72685;BME280;61365;52.162;4.500;2023-03-03T04:22:49;102608.56;;;1.67;89.94
72685;BME280;61365;52.162;4.500;2023-03-03T04:25:16;102608.38;;;1.77;90.58
72685;BME280;61365;52.162;4.500;2023-03-03T04:27:45;102608.38;;;1.64;90.24
72685;BME280;61365;52.162;4.500;2023-03-03T04:30:14;102612.19;;;1.56;90.79
72685;BME280;61365;52.162;4.500;2023-03-03T04:32:41;102609.78;;;1.59;90.95
72685;BME280;61365;52.162;4.500;2023-03-03T04:35:09;102609.88;;;1.74;90.92
72685;BME280;61365;52.162;4.500;2023-03-03T04:37:36;102605.63;;;1.61;90.28
72685;BME280;61365;52.162;4.500;2023-03-03T04:40:05;102607.19;;;1.86;89.61
72685;BME280;61365;52.162;4.500;2023-03-03T04:42:33;102608.66;;;1.95;87.99
72685;BME280;61365;52.162;4.500;2023-03-03T04:45:00;102611.44;;;1.85;88.29
72685;BME280;61365;52.162;4.500;2023-03-03T04:47:27;102611.16;;;1.80;88.69
72685;BME280;61365;52.162;4.500;2023-03-03T04:49:53;102605.19;;;1.82;88.40
72685;BME280;61365;52.162;4.500;2023-03-03T04:52:20;102617.06;;;1.64;89.12
72685;BME280;61365;52.162;4.500;2023-03-03T04:54:46;102612.25;;;1.57;88.96
72685;BME280;61365;52.162;4.500;2023-03-03T04:57:12;102610.97;;;1.50;89.19
72685;BME280;61365;52.162;4.500;2023-03-03T04:59:39;102622.41;;;1.14;89.67
72685;BME280;61365;52.162;4.500;2023-03-03T05:02:05;102620.81;;;1.16;90.95
72685;BME280;61365;52.162;4.500;2023-03-03T05:04:32;102622.56;;;1.03;90.77
72685;BME280;61365;52.162;4.500;2023-03-03T05:06:59;102619.81;;;1.00;90.71
72685;BME280;61365;52.162;4.500;2023-03-03T05:09:26;102614.44;;;1.11;90.39
72685;BME280;61365;52.162;4.500;2023-03-03T05:11:52;102619.19;;;0.91;91.18
72685;BME280;61365;52.162;4.500;2023-03-03T05:14:19;102618.16;;;0.89;91.21
72685;BME280;61365;52.162;4.500;2023-03-03T05:16:46;102620.63;;;0.74;91.82
72685;BME280;61365;52.162;4.500;2023-03-03T05:19:13;102619.69;;;0.99;91.93
72685;BME280;61365;52.162;4.500;2023-03-03T05:21:39;102617.16;;;0.87;91.84
72685;BME280;61365;52.162;4.500;2023-03-03T05:24:09;102615.75;;;0.79;92.18
72685;BME280;61365;52.162;4.500;2023-03-03T05:26:38;102622.34;;;0.87;92.28
72685;BME280;61365;52.162;4.500;2023-03-03T05:29:06;102615.72;;;1.04;91.98
72685;BME280;61365;52.162;4.500;2023-03-03T05:31:33;102622.84;;;0.95;92.04
72685;BME280;61365;52.162;4.500;2023-03-03T05:34:00;102619.38;;;0.94;91.99
72685;BME280;61365;52.162;4.500;2023-03-03T05:36:27;102613.88;;;0.89;91.30
72685;BME280;61365;52.162;4.500;2023-03-03T05:38:53;102618.31;;;1.04;91.89
72685;BME280;61365;52.162;4.500;2023-03-03T05:41:20;102615.16;;;0.83;91.31
72685;BME280;61365;52.162;4.500;2023-03-03T05:43:46;102615.44;;;1.13;91.85
72685;BME280;61365;52.162;4.500;2023-03-03T05:46:13;102616.75;;;0.81;91.57
72685;BME280;61365;52.162;4.500;2023-03-03T05:48:39;102613.63;;;0.98;91.63
72685;BME280;61365;52.162;4.500;2023-03-03T05:51:06;102616.16;;;0.85;91.42
72685;BME280;61365;52.162;4.500;2023-03-03T05:53:33;102619.66;;;0.85;91.97
72685;BME280;61365;52.162;4.500;2023-03-03T05:56:00;102615.88;;;0.80;91.21
72685;BME280;61365;52.162;4.500;2023-03-03T05:58:26;102621.31;;;0.71;91.95
72685;BME280;61365;52.162;4.500;2023-03-03T06:00:53;102619.09;;;0.64;92.15
72685;BME280;61365;52.162;4.500;2023-03-03T06:03:19;102623.91;;;0.71;92.98
72685;BME280;61365;52.162;4.500;2023-03-03T06:05:47;102623.47;;;0.65;92.63
72685;BME280;61365;52.162;4.500;2023-03-03T06:08:14;102618.78;;;0.59;93.18
72685;BME280;61365;52.162;4.500;2023-03-03T06:10:40;102625.06;;;0.63;92.80
72685;BME280;61365;52.162;4.500;2023-03-03T06:13:06;102624.66;;;0.45;93.75
72685;BME280;61365;52.162;4.500;2023-03-03T06:15:33;102639.69;;;0.51;93.99
72685;BME280;61365;52.162;4.500;2023-03-03T06:18:02;102631.50;;;0.56;93.90
72685;BME280;61365;52.162;4.500;2023-03-03T06:20:29;102636.91;;;0.73;93.91
72685;BME280;61365;52.162;4.500;2023-03-03T06:22:56;102637.75;;;0.60;93.81
72685;BME280;61365;52.162;4.500;2023-03-03T06:25:23;102638.53;;;0.59;94.44
72685;BME280;61365;52.162;4.500;2023-03-03T06:27:49;102643.66;;;0.71;94.54
72685;BME280;61365;52.162;4.500;2023-03-03T06:30:19;102644.22;;;0.67;94.08
72685;BME280;61365;52.162;4.500;2023-03-03T06:32:45;102648.25;;;1.14;93.38
72685;BME280;61365;52.162;4.500;2023-03-03T06:35:12;102645.53;;;0.99;91.05
72685;BME280;61365;52.162;4.500;2023-03-03T06:37:39;102652.94;;;1.19;91.20
72685;BME280;61365;52.162;4.500;2023-03-03T06:40:05;102648.63;;;0.93;91.18
72685;BME280;61365;52.162;4.500;2023-03-03T06:42:32;102655.72;;;1.09;91.59
72685;BME280;61365;52.162;4.500;2023-03-03T06:44:59;102657.09;;;1.17;91.06
72685;BME280;61365;52.162;4.500;2023-03-03T06:47:25;102651.84;;;1.29;91.13
72685;BME280;61365;52.162;4.500;2023-03-03T06:49:51;102659.31;;;1.25;89.95
72685;BME280;61365;52.162;4.500;2023-03-03T06:52:23;102659.81;;;1.19;91.15
72685;BME280;61365;52.162;4.500;2023-03-03T06:54:57;102654.31;;;1.14;90.83
72685;BME280;61365;52.162;4.500;2023-03-03T06:57:29;102660.59;;;1.31;91.54
72685;BME280;61365;52.162;4.500;2023-03-03T07:00:09;102666.19;;;1.38;91.38
72685;BME280;61365;52.162;4.500;2023-03-03T07:02:41;102677.56;;;1.01;90.97
72685;BME280;61365;52.162;4.500;2023-03-03T07:05:15;102668.16;;;1.15;92.25
72685;BME280;61365;52.162;4.500;2023-03-03T07:07:45;102670.38;;;1.22;92.56
72685;BME280;61365;52.162;4.500;2023-03-03T07:10:19;102669.03;;;1.15;92.51
72685;BME280;61365;52.162;4.500;2023-03-03T07:12:51;102671.88;;;1.32;92.83
72685;BME280;61365;52.162;4.500;2023-03-03T07:15:27;102668.63;;;1.48;92.08
72685;BME280;61365;52.162;4.500;2023-03-03T07:17:59;102671.59;;;1.68;91.35
72685;BME280;61365;52.162;4.500;2023-03-03T07:20:32;102676.50;;;1.63;90.95
72685;BME280;61365;52.162;4.500;2023-03-03T07:23:17;102681.03;;;1.54;91.04
72685;BME280;61365;52.162;4.500;2023-03-03T07:25:49;102673.59;;;1.72;91.05
72685;BME280;61365;52.162;4.500;2023-03-03T07:28:28;102692.59;;;1.59;90.91
72685;BME280;61365;52.162;4.500;2023-03-03T07:30:57;102686.75;;;1.75;91.07
72685;BME280;61365;52.162;4.500;2023-03-03T07:36:33;102697.47;;;1.81;91.23
72685;BME280;61365;52.162;4.500;2023-03-03T07:41:59;102705.72;;;2.29;89.36
72685;BME280;61365;52.162;4.500;2023-03-03T07:44:39;102697.47;;;2.08;85.53
72685;BME280;61365;52.162;4.500;2023-03-03T07:47:25;102705.44;;;1.98;86.72
72685;BME280;61365;52.162;4.500;2023-03-03T07:50:14;102704.06;;;2.45;87.23
72685;BME280;61365;52.162;4.500;2023-03-03T07:52:56;102711.50;;;1.98;86.30
72685;BME280;61365;52.162;4.500;2023-03-03T07:55:32;102706.44;;;1.86;88.49
72685;BME280;61365;52.162;4.500;2023-03-03T07:58:19;102713.00;;;1.68;89.03
72685;BME280;61365;52.162;4.500;2023-03-03T08:03:56;102707.34;;;2.00;89.83
72685;BME280;61365;52.162;4.500;2023-03-03T08:09:23;102714.69;;;1.94;89.06
72685;BME280;61365;52.162;4.500;2023-03-03T08:11:59;102715.91;;;2.13;88.54
72685;BME280;61365;52.162;4.500;2023-03-03T08:14:38;102724.06;;;1.92;89.93
72685;BME280;61365;52.162;4.500;2023-03-03T08:17:19;102721.53;;;2.34;90.19
72685;BME280;61365;52.162;4.500;2023-03-03T08:19:49;102723.19;;;2.47;88.12
72685;BME280;61365;52.162;4.500;2023-03-03T08:22:26;102726.69;;;2.89;85.89
72685;BME280;61365;52.162;4.500;2023-03-03T08:25:01;102730.06;;;2.88;83.99
72685;BME280;61365;52.162;4.500;2023-03-03T08:27:27;102734.53;;;2.91;84.63
72685;BME280;61365;52.162;4.500;2023-03-03T08:29:54;102739.41;;;2.71;83.61
72685;BME280;61365;52.162;4.500;2023-03-03T08:32:23;102736.72;;;2.14;86.97
72685;BME280;61365;52.162;4.500;2023-03-03T08:34:49;102736.78;;;2.16;87.91
72685;BME280;61365;52.162;4.500;2023-03-03T08:37:16;102744.72;;;2.46;87.94
72685;BME280;61365;52.162;4.500;2023-03-03T08:39:42;102740.88;;;2.39;88.88
72685;BME280;61365;52.162;4.500;2023-03-03T08:42:09;102746.66;;;2.77;89.75
72685;BME280;61365;52.162;4.500;2023-03-03T08:44:35;102749.84;;;3.44;84.86
72685;BME280;61365;52.162;4.500;2023-03-03T08:47:01;102746.25;;;3.27;85.03
72685;BME280;61365;52.162;4.500;2023-03-03T08:49:28;102747.50;;;3.34;85.35
72685;BME280;61365;52.162;4.500;2023-03-03T08:51:54;102749.63;;;3.26;85.98
72685;BME280;61365;52.162;4.500;2023-03-03T08:54:22;102744.19;;;3.22;87.38
72685;BME280;61365;52.162;4.500;2023-03-03T08:56:48;102749.03;;;3.30;86.08
72685;BME280;61365;52.162;4.500;2023-03-03T08:59:14;102745.34;;;4.02;84.61
72685;BME280;61365;52.162;4.500;2023-03-03T09:01:41;102749.69;;;4.18;82.79
72685;BME280;61365;52.162;4.500;2023-03-03T09:04:09;102751.81;;;3.64;85.05
72685;BME280;61365;52.162;4.500;2023-03-03T09:06:36;102749.44;;;4.13;84.75
72685;BME280;61365;52.162;4.500;2023-03-03T09:09:02;102760.50;;;3.94;85.79
72685;BME280;61365;52.162;4.500;2023-03-03T09:11:29;102760.13;;;4.34;83.23
72685;BME280;61365;52.162;4.500;2023-03-03T09:14:05;102762.25;;;4.10;82.96
72685;BME280;61365;52.162;4.500;2023-03-03T09:16:49;102752.22;;;4.64;82.03
72685;BME280;61365;52.162;4.500;2023-03-03T09:19:20;102749.78;;;4.51;81.83
72685;BME280;61365;52.162;4.500;2023-03-03T09:21:54;102735.25;;;4.71;81.76
72685;BME280;61365;52.162;4.500;2023-03-03T09:24:25;102748.69;;;4.95;81.36
72685;BME280;61365;52.162;4.500;2023-03-03T09:26:55;102745.16;;;4.78;80.59
72685;BME280;61365;52.162;4.500;2023-03-03T09:29:29;102747.84;;;4.80;82.36
72685;BME280;61365;52.162;4.500;2023-03-03T09:32:32;102746.53;;;5.21;80.81
72685;BME280;61365;52.162;4.500;2023-03-03T09:38:25;102751.31;;;5.30;81.57
72685;BME280;61365;52.162;4.500;2023-03-03T09:41:05;102739.06;;;5.80;82.35
72685;BME280;61365;52.162;4.500;2023-03-03T09:49:33;102747.22;;;6.60;76.31
72685;BME280;61365;52.162;4.500;2023-03-03T09:52:24;102753.72;;;5.60;79.33
72685;BME280;61365;52.162;4.500;2023-03-03T09:55:24;102751.16;;;5.62;81.10
72685;BME280;61365;52.162;4.500;2023-03-03T09:58:31;102753.94;;;5.65;81.13
72685;BME280;61365;52.162;4.500;2023-03-03T10:07:08;102751.78;;;7.04;76.54
72685;BME280;61365;52.162;4.500;2023-03-03T10:12:45;102758.72;;;7.44;73.85
72685;BME280;61365;52.162;4.500;2023-03-03T10:15:41;102754.91;;;7.57;73.81
72685;BME280;61365;52.162;4.500;2023-03-03T10:18:41;102757.28;;;7.10;74.07
72685;BME280;61365;52.162;4.500;2023-03-03T10:36:15;102743.84;;;7.84;71.69
72685;BME280;61365;52.162;4.500;2023-03-03T10:39:25;102747.94;;;7.77;71.96
72685;BME280;61365;52.162;4.500;2023-03-03T10:51:21;102743.97;;;8.31;67.81
72685;BME280;61365;52.162;4.500;2023-03-03T10:54:33;102736.81;;;8.27;67.37
72685;BME280;61365;52.162;4.500;2023-03-03T10:57:46;102741.16;;;7.82;69.28
72685;BME280;61365;52.162;4.500;2023-03-03T11:00:21;102746.34;;;7.81;70.51
72685;BME280;61365;52.162;4.500;2023-03-03T11:09:21;102732.84;;;8.37;67.55
72685;BME280;61365;52.162;4.500;2023-03-03T11:17:51;102731.66;;;8.29;65.06
72685;BME280;61365;52.162;4.500;2023-03-03T11:20:45;102732.34;;;8.68;63.42
72685;BME280;61365;52.162;4.500;2023-03-03T11:32:12;102730.88;;;8.77;63.67
72685;BME280;61365;52.162;4.500;2023-03-03T11:35:03;102724.97;;;8.58;61.78
72685;BME280;61365;52.162;4.500;2023-03-03T11:37:41;102733.88;;;8.18;63.28
72685;BME280;61365;52.162;4.500;2023-03-03T11:40:21;102720.84;;;8.65;60.08
72685;BME280;61365;52.162;4.500;2023-03-03T11:43:05;102725.91;;;8.60;59.42
72685;BME280;61365;52.162;4.500;2023-03-03T11:45:53;102729.09;;;8.30;59.90
72685;BME280;61365;52.162;4.500;2023-03-03T11:51:16;102725.00;;;8.37;59.71
72685;BME280;61365;52.162;4.500;2023-03-03T11:56:47;102721.09;;;8.25;59.59
72685;BME280;61365;52.162;4.500;2023-03-03T12:04:51;102714.25;;;8.52;60.07
72685;BME280;61365;52.162;4.500;2023-03-03T12:07:53;102715.16;;;8.52;60.99
72685;BME280;61365;52.162;4.500;2023-03-03T12:10:42;102703.88;;;8.53;60.42
72685;BME280;61365;52.162;4.500;2023-03-03T12:19:34;102709.88;;;8.99;60.58
72685;BME280;61365;52.162;4.500;2023-03-03T12:28:06;102691.06;;;9.37;60.19
72685;BME280;61365;52.162;4.500;2023-03-03T12:33:24;102690.13;;;9.35;60.66
72685;BME280;61365;52.162;4.500;2023-03-03T12:42:24;102696.78;;;9.25;59.55
72685;BME280;61365;52.162;4.500;2023-03-03T12:48:08;102696.91;;;9.28;59.61
72685;BME280;61365;52.162;4.500;2023-03-03T12:50:54;102697.78;;;9.55;56.92
72685;BME280;61365;52.162;4.500;2023-03-03T12:56:39;102687.84;;;9.44;54.69
72685;BME280;61365;52.162;4.500;2023-03-03T12:59:15;102684.75;;;9.30;54.21
72685;BME280;61365;52.162;4.500;2023-03-03T13:05:31;102685.44;;;9.25;55.91
72685;BME280;61365;52.162;4.500;2023-03-03T13:08:29;102685.22;;;9.44;55.32
72685;BME280;61365;52.162;4.500;2023-03-03T13:11:24;102676.31;;;9.39;56.82
72685;BME280;61365;52.162;4.500;2023-03-03T13:16:55;102683.69;;;8.99;58.23
72685;BME280;61365;52.162;4.500;2023-03-03T13:19:55;102684.41;;;9.47;55.85
72685;BME280;61365;52.162;4.500;2023-03-03T13:25:40;102682.63;;;9.46;53.68
72685;BME280;61365;52.162;4.500;2023-03-03T13:28:36;102682.19;;;9.06;57.09
72685;BME280;61365;52.162;4.500;2023-03-03T13:31:14;102677.94;;;9.10;56.14
72685;BME280;61365;52.162;4.500;2023-03-03T13:33:53;102671.19;;;9.16;57.86
72685;BME280;61365;52.162;4.500;2023-03-03T13:37:11;102671.94;;;8.64;61.89
72685;BME280;61365;52.162;4.500;2023-03-03T13:39:22;102684.00;;;9.09;58.09
72685;BME280;61365;52.162;4.500;2023-03-03T13:42:00;102676.56;;;8.95;60.06
72685;BME280;61365;52.162;4.500;2023-03-03T13:44:57;102677.34;;;9.44;58.53
72685;BME280;61365;52.162;4.500;2023-03-03T13:47:32;102680.78;;;9.42;56.32
72685;BME280;61365;52.162;4.500;2023-03-03T13:50:36;102678.09;;;8.64;59.73
72685;BME280;61365;52.162;4.500;2023-03-03T14:11:11;102676.50;;;8.94;61.24
72685;BME280;61365;52.162;4.500;2023-03-03T14:17:41;102675.53;;;8.90;58.76
72685;BME280;61365;52.162;4.500;2023-03-03T14:26:09;102666.97;;;8.71;60.05
72685;BME280;61365;52.162;4.500;2023-03-03T14:28:42;102665.66;;;8.59;60.20
72685;BME280;61365;52.162;4.500;2023-03-03T14:31:26;102660.03;;;8.72;59.51
72685;BME280;61365;52.162;4.500;2023-03-03T14:33:59;102657.19;;;8.66;60.86
72685;BME280;61365;52.162;4.500;2023-03-03T14:36:32;102658.78;;;8.86;58.88
72685;BME280;61365;52.162;4.500;2023-03-03T14:39:32;102652.59;;;9.09;57.44
72685;BME280;61365;52.162;4.500;2023-03-03T14:42:34;102653.41;;;8.82;59.10
72685;BME280;61365;52.162;4.500;2023-03-03T14:47:55;102648.75;;;8.99;57.69
72685;BME280;61365;52.162;4.500;2023-03-03T14:50:37;102653.84;;;8.94;59.39
72685;BME280;61365;52.162;4.500;2023-03-03T14:53:21;102652.53;;;9.07;57.40
72685;BME280;61365;52.162;4.500;2023-03-03T14:58:53;102650.06;;;8.86;57.95
72685;BME280;61365;52.162;4.500;2023-03-03T15:01:40;102646.84;;;8.69;59.21
72685;BME280;61365;52.162;4.500;2023-03-03T15:06:41;102649.63;;;8.99;58.48
72685;BME280;61365;52.162;4.500;2023-03-03T15:09:28;102653.56;;;8.86;60.04
72685;BME280;61365;52.162;4.500;2023-03-03T15:12:01;102641.53;;;8.92;59.26
72685;BME280;61365;52.162;4.500;2023-03-03T15:14:46;102642.94;;;8.82;57.50
72685;BME280;61365;52.162;4.500;2023-03-03T15:23:00;102631.25;;;8.72;57.14
72685;BME280;61365;52.162;4.500;2023-03-03T15:26:03;102632.03;;;8.69;57.53
72685;BME280;61365;52.162;4.500;2023-03-03T15:29:15;102634.34;;;8.86;56.92
72685;BME280;61365;52.162;4.500;2023-03-03T15:31:51;102631.25;;;8.72;58.67
72685;BME280;61365;52.162;4.500;2023-03-03T15:41:05;102632.06;;;8.95;58.30
72685;BME280;61365;52.162;4.500;2023-03-03T15:43:55;102628.22;;;9.11;55.19
72685;BME280;61365;52.162;4.500;2023-03-03T16:03:43;102622.66;;;8.76;56.96
72685;BME280;61365;52.162;4.500;2023-03-03T16:06:23;102626.13;;;8.75;56.62
72685;BME280;61365;52.162;4.500;2023-03-03T16:12:17;102636.00;;;8.58;55.93
72685;BME280;61365;52.162;4.500;2023-03-03T16:18:13;102639.41;;;8.55;60.65
72685;BME280;61365;52.162;4.500;2023-03-03T16:27:24;102627.69;;;8.23;62.63
72685;BME280;61365;52.162;4.500;2023-03-03T16:32:43;102624.63;;;8.35;58.92
72685;BME280;61365;52.162;4.500;2023-03-03T16:35:24;102627.16;;;8.09;60.01
72685;BME280;61365;52.162;4.500;2023-03-03T16:38:28;102622.41;;;8.21;61.10
72685;BME280;61365;52.162;4.500;2023-03-03T16:41:06;102630.13;;;8.18;61.63
72685;BME280;61365;52.162;4.500;2023-03-03T16:46:44;102618.53;;;8.34;61.78
72685;BME280;61365;52.162;4.500;2023-03-03T16:49:33;102625.03;;;8.46;57.89
72685;BME280;61365;52.162;4.500;2023-03-03T16:52:13;102615.59;;;8.02;58.52
72685;BME280;61365;52.162;4.500;2023-03-03T16:54:58;102626.72;;;7.96;62.88
72685;BME280;61365;52.162;4.500;2023-03-03T17:09:47;102631.53;;;7.86;65.62
72685;BME280;61365;52.162;4.500;2023-03-03T17:12:33;102639.88;;;7.54;67.24
72685;BME280;61365;52.162;4.500;2023-03-03T17:20:52;102637.44;;;7.81;62.61
72685;BME280;61365;52.162;4.500;2023-03-03T17:26:40;102653.22;;;7.62;61.09
72685;BME280;61365;52.162;4.500;2023-03-03T17:29:26;102650.22;;;7.53;64.26
72685;BME280;61365;52.162;4.500;2023-03-03T17:32:23;102653.53;;;7.48;64.61
72685;BME280;61365;52.162;4.500;2023-03-03T17:38:23;102660.50;;;7.69;62.40
72685;BME280;61365;52.162;4.500;2023-03-03T17:46:49;102669.88;;;7.43;63.80
72685;BME280;61365;52.162;4.500;2023-03-03T17:55:32;102678.47;;;7.40;62.73